Balcones Heights, Texas
Current Conditions -  °F | °C
As of 8:51 PM on Friday 21 Nov 2014 (Local Time) from KSAT Reporting Station
Overcast Overcast  
Wind Chill: 69°   Ceiling: 1400
Heat Index: 69°   Visibility: 10mi
Dew Point: 66°   Wind: 17mph
Humidity: 90%   Direction: 140°SE
Pressure: 30.05"   Gusts: NA
Location:  29.4697°N, 98.5294°W
Report Text: KSAT 220251Z 14015KT 10SM BKN014 OVC020 21/19 A3005 RMK AO2 SLP162 T02060189 51015
Loading
Personal Weather Stations






























Interactive Weather Map New forecast layout! Learn more

10-Day Weather Forecast

Advertisements
Track Severe Weather on mobile